createdAt,value
2018-07-26T00:02:23.429Z,26.59
2018-07-26T00:04:51.484Z,26.54
2018-07-26T00:07:19.339Z,26.51
2018-07-26T00:09:47.008Z,26.58
2018-07-26T00:12:14.705Z,26.64
2018-07-26T00:14:42.702Z,26.66
2018-07-26T00:17:10.351Z,26.66
2018-07-26T00:19:38.062Z,26.64
2018-07-26T00:22:06.191Z,26.62
2018-07-26T00:24:33.889Z,26.61
2018-07-26T00:27:02.039Z,26.61
2018-07-26T00:29:29.669Z,26.61
2018-07-26T00:31:57.549Z,26.65
2018-07-26T00:34:25.834Z,26.55
2018-07-26T00:36:53.601Z,26.51
2018-07-26T00:39:21.490Z,26.52
2018-07-26T00:41:49.121Z,26.53
2018-07-26T00:44:16.770Z,26.55
2018-07-26T00:46:44.410Z,26.54
2018-07-26T00:49:12.310Z,26.47
2018-07-26T00:51:39.945Z,26.41
2018-07-26T00:54:07.701Z,26.40
2018-07-26T00:56:35.292Z,26.42
2018-07-26T00:59:02.921Z,26.42
2018-07-26T01:01:31.409Z,26.47
2018-07-26T01:03:59.425Z,26.47
2018-07-26T01:06:27.467Z,26.46
2018-07-26T01:08:55.109Z,26.43
2018-07-26T01:11:22.773Z,26.49
2018-07-26T01:13:50.441Z,26.55
2018-07-26T01:16:18.283Z,26.56
2018-07-26T01:18:45.936Z,26.54
2018-07-26T01:21:13.598Z,26.49
2018-07-26T01:23:41.368Z,26.56
2018-07-26T01:26:08.966Z,26.58
2018-07-26T01:28:36.615Z,26.56
2018-07-26T01:31:04.314Z,26.53
2018-07-26T01:33:32.247Z,26.51
2018-07-26T01:36:00.186Z,26.56
2018-07-26T01:38:28.719Z,26.56
2018-07-26T01:40:57.200Z,26.55
2018-07-26T01:43:47.372Z,26.53
2018-07-26T01:46:15.154Z,26.54
2018-07-26T01:48:44.565Z,26.49
2018-07-26T01:51:13.477Z,26.51
2018-07-26T01:53:41.995Z,26.42
2018-07-26T01:56:10.209Z,26.40
2018-07-26T01:58:38.242Z,26.39
2018-07-26T02:01:07.632Z,26.38
2018-07-26T02:03:35.414Z,26.20
2018-07-26T02:06:03.409Z,26.27
2018-07-26T02:08:31.244Z,26.28
2018-07-26T02:10:59.312Z,26.29
2018-07-26T02:13:26.965Z,26.25
2018-07-26T02:15:54.655Z,26.27
2018-07-26T02:18:22.661Z,26.34
2018-07-26T02:20:50.698Z,26.33
2018-07-26T02:23:18.306Z,26.23
2018-07-26T02:25:46.560Z,26.12
2018-07-26T02:28:14.209Z,26.11
2018-07-26T02:30:42.129Z,26.09
2018-07-26T02:33:09.855Z,26.05
2018-07-26T02:35:37.585Z,26.07
2018-07-26T02:38:05.329Z,26.07
2018-07-26T02:40:33.238Z,26.09
2018-07-26T02:43:01.613Z,26.03
2018-07-26T02:45:29.378Z,25.99
2018-07-26T02:47:57.046Z,25.95
2018-07-26T02:50:24.697Z,25.92
2018-07-26T02:52:52.574Z,25.96
2018-07-26T02:55:20.208Z,25.94
2018-07-26T02:57:48.250Z,25.95
2018-07-26T03:00:15.903Z,26.01
2018-07-26T03:02:43.605Z,25.97
2018-07-26T03:05:11.260Z,26.06
2018-07-26T03:07:38.873Z,26.11
2018-07-26T03:10:06.821Z,26.12
2018-07-26T03:12:34.777Z,26.12
2018-07-26T03:15:02.372Z,26.13
2018-07-26T03:17:30.020Z,26.16
2018-07-26T03:19:57.970Z,26.12
2018-07-26T03:22:25.818Z,26.08
2018-07-26T03:24:53.498Z,26.06
2018-07-26T03:27:21.517Z,25.97
2018-07-26T03:29:49.424Z,25.95
2018-07-26T03:32:17.048Z,25.86
2018-07-26T03:34:44.904Z,25.94
2018-07-26T03:37:12.581Z,25.88
2018-07-26T03:39:40.929Z,25.91
2018-07-26T03:42:08.565Z,25.91
2018-07-26T03:44:36.673Z,25.89
2018-07-26T03:47:04.605Z,25.95
2018-07-26T03:49:32.242Z,25.94
2018-07-26T03:52:00.333Z,25.93
2018-07-26T03:54:28.017Z,26.02
2018-07-26T03:56:55.829Z,25.97
2018-07-26T03:59:23.698Z,25.92
2018-07-26T04:01:51.367Z,25.81
2018-07-26T04:04:19.257Z,25.96
2018-07-26T04:06:47.233Z,25.96
2018-07-26T04:09:16.119Z,25.92
2018-07-26T04:11:44.886Z,25.82
2018-07-26T04:14:12.825Z,25.86
2018-07-26T04:16:40.437Z,25.76
2018-07-26T04:19:09.454Z,25.88
2018-07-26T04:21:37.825Z,25.95
2018-07-26T04:24:06.145Z,25.94
2018-07-26T04:26:34.023Z,25.90
2018-07-26T04:29:01.754Z,25.90
2018-07-26T04:31:29.631Z,26.00
2018-07-26T04:33:57.710Z,26.04
2018-07-26T04:36:25.390Z,26.14
2018-07-26T04:38:53.330Z,26.23
2018-07-26T04:41:21.678Z,26.27
2018-07-26T04:43:49.678Z,26.29
2018-07-26T04:46:17.294Z,26.29
2018-07-26T04:48:44.905Z,26.30
2018-07-26T04:51:13.089Z,26.31
2018-07-26T04:53:40.811Z,26.37
2018-07-26T04:56:08.448Z,26.40
2018-07-26T04:58:36.408Z,26.38
2018-07-26T05:01:04.311Z,26.37
2018-07-26T05:03:31.996Z,26.33
2018-07-26T05:06:00.259Z,26.37
2018-07-26T05:08:28.204Z,26.38
2018-07-26T05:10:55.828Z,26.40
2018-07-26T05:13:23.749Z,26.46
2018-07-26T05:15:51.347Z,26.54
2018-07-26T05:18:19.264Z,26.57
2018-07-26T05:20:47.437Z,26.67
2018-07-26T05:23:15.069Z,26.82
2018-07-26T05:25:42.669Z,26.87
2018-07-26T05:28:10.668Z,26.85
2018-07-26T05:30:38.578Z,26.82
2018-07-26T05:33:06.368Z,26.81
2018-07-26T05:35:34.022Z,26.81
2018-07-26T05:38:01.916Z,26.83
2018-07-26T05:40:29.574Z,26.93
2018-07-26T05:42:57.345Z,27.00
2018-07-26T05:45:25.015Z,27.02
2018-07-26T05:47:52.934Z,27.03
2018-07-26T05:50:20.943Z,27.06
2018-07-26T05:52:48.839Z,27.12
2018-07-26T05:55:16.717Z,27.16
2018-07-26T05:57:44.618Z,27.16
2018-07-26T06:00:13.419Z,27.20
2018-07-26T06:02:41.530Z,27.25
2018-07-26T06:05:09.607Z,27.34
2018-07-26T06:07:37.237Z,27.32
2018-07-26T06:10:05.933Z,27.32
2018-07-26T06:12:33.846Z,27.31
2018-07-26T06:15:01.470Z,27.36
2018-07-26T06:17:29.353Z,27.43
2018-07-26T06:19:56.970Z,27.46
2018-07-26T06:22:25.201Z,27.51
2018-07-26T06:24:53.134Z,27.55
2018-07-26T06:27:21.014Z,27.59
2018-07-26T06:29:48.660Z,27.61
2018-07-26T06:32:16.300Z,27.65
2018-07-26T06:34:43.962Z,27.65
2018-07-26T06:37:11.596Z,27.70
2018-07-26T06:39:39.236Z,27.70
2018-07-26T06:42:07.401Z,27.77
2018-07-26T06:44:35.036Z,27.79
2018-07-26T06:47:02.733Z,27.82
2018-07-26T06:49:30.603Z,27.86
2018-07-26T06:51:58.600Z,27.88
2018-07-26T06:54:26.238Z,27.89
2018-07-26T06:56:54.807Z,27.90
2018-07-26T06:59:22.712Z,27.93
2018-07-26T07:01:50.315Z,27.94
2018-07-26T07:04:18.080Z,27.95
2018-07-26T07:06:45.693Z,27.97
2018-07-26T07:09:13.364Z,27.99
2018-07-26T07:11:41.494Z,28.01
2018-07-26T07:14:09.190Z,28.05
2018-07-26T07:16:36.859Z,28.04
2018-07-26T07:19:04.954Z,28.08
2018-07-26T07:21:32.552Z,28.11
2018-07-26T07:24:00.457Z,28.13
2018-07-26T07:26:28.788Z,28.16
2018-07-26T07:28:57.000Z,28.19
2018-07-26T07:31:25.062Z,28.20
2018-07-26T07:33:52.720Z,28.24
2018-07-26T07:36:20.393Z,28.24
2018-07-26T07:38:48.104Z,28.26
2018-07-26T07:41:15.752Z,28.27
2018-07-26T07:43:43.738Z,28.29
2018-07-26T07:46:11.609Z,28.28
2018-07-26T07:48:39.267Z,28.32
2018-07-26T07:51:07.325Z,28.35
2018-07-26T07:53:34.969Z,28.36
2018-07-26T07:56:02.621Z,28.38
2018-07-26T07:58:30.309Z,28.41
2018-07-26T08:00:57.992Z,28.44
2018-07-26T08:03:26.096Z,28.46
2018-07-26T08:05:53.783Z,28.48
2018-07-26T08:08:21.583Z,28.47
2018-07-26T08:10:49.490Z,28.49
2018-07-26T08:13:17.284Z,28.51
2018-07-26T08:15:45.111Z,28.53
2018-07-26T08:18:12.717Z,28.57
2018-07-26T08:20:40.454Z,28.60
2018-07-26T08:23:08.125Z,28.63
2018-07-26T08:25:36.444Z,28.65
2018-07-26T08:28:04.254Z,28.68
2018-07-26T08:30:31.884Z,28.69
2018-07-26T08:32:59.589Z,28.72
2018-07-26T08:35:27.865Z,28.75
2018-07-26T08:37:55.514Z,28.78
2018-07-26T08:40:23.152Z,28.59
2018-07-26T08:42:50.810Z,28.84
2018-07-26T08:45:18.833Z,28.87
2018-07-26T08:47:46.489Z,28.90
2018-07-26T08:50:14.685Z,28.91
2018-07-26T08:52:42.344Z,28.95
2018-07-26T08:55:10.329Z,28.95
2018-07-26T08:57:38.214Z,28.97
2018-07-26T09:00:06.353Z,28.98
2018-07-26T09:02:34.296Z,28.98
2018-07-26T09:05:01.958Z,28.99
2018-07-26T09:07:29.646Z,29.01
2018-07-26T09:09:57.341Z,29.02
2018-07-26T09:12:24.981Z,29.04
2018-07-26T09:14:52.661Z,29.06
2018-07-26T09:17:20.695Z,29.07
2018-07-26T09:19:48.831Z,29.09
2018-07-26T09:22:16.645Z,29.12
2018-07-26T09:24:44.326Z,29.14
2018-07-26T09:27:13.356Z,29.17
2018-07-26T09:29:41.099Z,29.18
2018-07-26T09:32:08.874Z,29.21
2018-07-26T09:34:37.162Z,29.23
2018-07-26T09:37:04.828Z,29.25
2018-07-26T09:39:32.534Z,29.27
2018-07-26T09:42:00.703Z,29.28
2018-07-26T09:44:28.321Z,29.30
2018-07-26T09:46:56.096Z,29.31
2018-07-26T09:49:26.121Z,29.33
2018-07-26T09:51:53.757Z,29.36
2018-07-26T09:54:21.421Z,29.38
2018-07-26T09:56:49.656Z,29.40
2018-07-26T09:59:17.286Z,29.42
2018-07-26T10:01:45.222Z,29.46
2018-07-26T10:04:13.241Z,29.47
2018-07-26T10:06:40.879Z,29.49
2018-07-26T10:09:10.152Z,29.53
2018-07-26T10:11:37.945Z,29.56
2018-07-26T10:14:05.660Z,29.61
2018-07-26T10:16:33.958Z,29.64
2018-07-26T10:19:01.951Z,29.67
2018-07-26T10:21:29.661Z,29.67
2018-07-26T10:23:57.772Z,29.74
2018-07-26T10:26:25.816Z,29.76
2018-07-26T10:28:53.553Z,29.77
2018-07-26T10:31:21.597Z,29.80
2018-07-26T10:33:49.357Z,29.82
2018-07-26T10:36:17.374Z,29.86
2018-07-26T10:38:45.257Z,29.92
2018-07-26T10:41:13.130Z,29.95
2018-07-26T10:43:40.936Z,29.97
2018-07-26T10:46:08.655Z,30.01
2018-07-26T10:48:36.794Z,30.04
2018-07-26T10:51:05.037Z,30.06
2018-07-26T10:53:32.753Z,30.08
2018-07-26T10:56:00.514Z,30.09
2018-07-26T10:58:28.361Z,30.11
2018-07-26T11:00:56.274Z,30.12
2018-07-26T11:03:26.221Z,30.14
2018-07-26T11:05:54.226Z,30.18
2018-07-26T11:08:21.978Z,30.20
2018-07-26T11:10:49.780Z,30.26
2018-07-26T11:13:17.469Z,30.29
2018-07-26T11:15:45.105Z,30.32
2018-07-26T11:18:12.822Z,30.37
2018-07-26T11:20:40.511Z,30.41
2018-07-26T11:23:08.400Z,30.45
2018-07-26T11:25:36.408Z,30.49
2018-07-26T11:28:04.846Z,30.54
2018-07-26T11:30:32.789Z,30.57
2018-07-26T11:33:00.684Z,30.61
2018-07-26T11:35:28.756Z,30.64
2018-07-26T11:37:56.452Z,30.68
2018-07-26T11:40:24.508Z,30.71
2018-07-26T11:42:52.471Z,30.75
2018-07-26T11:45:20.665Z,30.80
2018-07-26T11:47:48.333Z,30.84
2018-07-26T11:50:16.220Z,30.88
2018-07-26T11:52:43.957Z,30.92
2018-07-26T11:55:11.593Z,30.94
2018-07-26T11:57:39.585Z,30.97
2018-07-26T12:00:08.076Z,31.00
2018-07-26T12:02:36.717Z,31.03
2018-07-26T12:05:04.897Z,31.07
2018-07-26T12:07:32.807Z,31.10
2018-07-26T12:10:00.701Z,31.14
2018-07-26T12:12:28.434Z,31.21
2018-07-26T12:14:56.370Z,31.25
2018-07-26T12:17:24.065Z,31.28
2018-07-26T12:19:51.755Z,31.31
2018-07-26T12:22:20.077Z,31.34
2018-07-26T12:24:47.868Z,31.38
2018-07-26T12:27:15.528Z,31.40
2018-07-26T12:29:43.554Z,31.45
2018-07-26T12:32:11.237Z,31.48
2018-07-26T12:34:38.913Z,31.51
2018-07-26T12:37:06.581Z,31.55
2018-07-26T12:39:35.082Z,31.59
2018-07-26T12:42:02.713Z,31.63
2018-07-26T12:44:30.788Z,31.67
2018-07-26T12:46:58.723Z,31.72
2018-07-26T12:49:26.660Z,31.76
2018-07-26T12:51:54.313Z,31.79
2018-07-26T12:54:22.032Z,31.82
2018-07-26T12:56:49.674Z,31.87
2018-07-26T12:59:17.279Z,31.90
2018-07-26T13:01:45.404Z,31.91
2018-07-26T13:04:13.077Z,31.91
2018-07-26T13:06:40.857Z,31.95
2018-07-26T13:09:09.694Z,32.01
2018-07-26T13:11:37.421Z,32.05
2018-07-26T13:14:05.845Z,32.10
2018-07-26T13:16:34.081Z,32.14
2018-07-26T13:19:02.438Z,32.16
2018-07-26T13:21:30.131Z,32.20
2018-07-26T13:23:58.205Z,32.23
2018-07-26T13:26:26.049Z,32.27
2018-07-26T13:28:53.993Z,32.31
2018-07-26T13:31:21.676Z,32.36
2018-07-26T13:33:49.621Z,32.39
2018-07-26T13:36:17.293Z,32.45
2018-07-26T13:38:45.189Z,32.48
2018-07-26T13:41:13.394Z,32.48
2018-07-26T13:43:41.294Z,32.50
2018-07-26T13:46:09.170Z,32.52
2018-07-26T13:48:36.855Z,32.55
2018-07-26T13:51:05.416Z,32.60
2018-07-26T13:53:33.126Z,32.64
2018-07-26T13:56:00.783Z,32.66
2018-07-26T13:58:28.512Z,32.69
2018-07-26T14:00:56.599Z,32.71
2018-07-26T14:03:24.527Z,32.76
2018-07-26T14:05:52.186Z,32.78
2018-07-26T14:08:19.845Z,32.81
2018-07-26T14:10:47.513Z,32.81
2018-07-26T14:13:15.169Z,32.84
2018-07-26T14:15:43.453Z,32.86
2018-07-26T14:18:11.101Z,32.90
2018-07-26T14:20:38.782Z,32.94
2018-07-26T14:23:06.981Z,32.97
2018-07-26T14:25:34.614Z,33.05
2018-07-26T14:28:02.244Z,33.18
2018-07-26T14:30:30.692Z,33.33
2018-07-26T14:32:58.664Z,33.62
2018-07-26T14:35:26.529Z,34.08
2018-07-26T14:37:54.461Z,35.38
2018-07-26T14:40:22.333Z,36.59
2018-07-26T14:42:50.576Z,37.34
2018-07-26T14:45:18.261Z,37.80
2018-07-26T14:47:45.934Z,38.16
2018-07-26T14:50:13.925Z,38.42
2018-07-26T14:52:41.722Z,38.52
2018-07-26T14:55:09.662Z,38.69
2018-07-26T14:57:37.351Z,38.69
2018-07-26T15:00:05.429Z,38.91
2018-07-26T15:02:33.081Z,39.12
2018-07-26T15:05:00.831Z,39.29
2018-07-26T15:07:28.534Z,38.56
2018-07-26T15:09:56.220Z,36.80
2018-07-26T15:12:23.881Z,35.77
2018-07-26T15:14:51.885Z,35.09
2018-07-26T15:17:19.594Z,34.71
2018-07-26T15:19:47.303Z,34.53
2018-07-26T15:22:14.983Z,34.41
2018-07-26T15:24:42.651Z,34.38
2018-07-26T15:27:10.981Z,34.36
2018-07-26T15:29:38.664Z,34.26
2018-07-26T15:32:06.901Z,34.12
2018-07-26T15:34:34.996Z,33.96
2018-07-26T15:37:02.628Z,33.92
2018-07-26T15:39:30.492Z,33.91
2018-07-26T15:41:58.521Z,34.09
2018-07-26T15:44:26.172Z,34.20
2018-07-26T15:46:53.840Z,34.21
2018-07-26T15:49:21.562Z,34.18
2018-07-26T15:51:49.545Z,34.12
2018-07-26T15:54:17.326Z,34.01
2018-07-26T15:56:45.010Z,33.86
2018-07-26T15:59:12.700Z,33.76
2018-07-26T16:01:40.677Z,33.69
2018-07-26T16:04:08.369Z,33.62
2018-07-26T16:06:36.247Z,33.57
2018-07-26T16:09:06.267Z,33.53
2018-07-26T16:11:34.357Z,33.54
2018-07-26T16:14:02.031Z,33.50
2018-07-26T16:16:29.705Z,33.49
2018-07-26T16:18:57.686Z,33.37
2018-07-26T16:21:25.357Z,33.24
2018-07-26T16:23:53.059Z,33.22
2018-07-26T16:26:21.095Z,33.26
2018-07-26T16:28:49.150Z,33.25
2018-07-26T16:31:17.259Z,33.23
2018-07-26T16:33:44.900Z,33.22
2018-07-26T16:36:12.833Z,33.25
2018-07-26T16:38:41.363Z,33.23
2018-07-26T16:41:09.197Z,33.21
2018-07-26T16:43:37.231Z,33.16
2018-07-26T16:46:05.145Z,33.10
2018-07-26T16:48:33.770Z,33.05
2018-07-26T16:51:01.620Z,33.03
2018-07-26T16:53:29.317Z,33.00
2018-07-26T16:55:56.976Z,33.05
2018-07-26T16:58:24.759Z,33.12
2018-07-26T17:00:52.365Z,33.20
2018-07-26T17:03:20.281Z,33.26
2018-07-26T17:05:47.949Z,33.31
2018-07-26T17:08:16.549Z,33.38
2018-07-26T17:10:44.274Z,33.46
2018-07-26T17:13:12.611Z,33.55
2018-07-26T17:15:40.392Z,33.61
2018-07-26T17:18:08.473Z,33.58
2018-07-26T17:20:36.769Z,33.64
2018-07-26T17:23:04.772Z,33.68
2018-07-26T17:25:32.737Z,33.73
2018-07-26T17:28:00.613Z,33.83
2018-07-26T17:30:28.584Z,33.92
2018-07-26T17:32:56.697Z,33.99
2018-07-26T17:35:24.574Z,34.03
2018-07-26T17:37:52.934Z,34.06
2018-07-26T17:40:20.875Z,34.04
2018-07-26T17:42:48.885Z,34.02
2018-07-26T17:45:16.788Z,33.99
2018-07-26T17:47:44.687Z,34.02
2018-07-26T17:50:12.870Z,34.02
2018-07-26T17:52:41.501Z,34.03
2018-07-26T17:55:09.485Z,34.05
2018-07-26T17:57:37.605Z,34.04
2018-07-26T18:00:07.993Z,34.00
2018-07-26T18:02:35.957Z,33.94
2018-07-26T18:05:04.093Z,33.91
2018-07-26T18:07:32.101Z,33.88
2018-07-26T18:10:00.128Z,33.84
2018-07-26T18:12:28.032Z,33.80
2018-07-26T18:14:55.683Z,33.73
2018-07-26T18:17:23.712Z,33.68
2018-07-26T18:19:51.726Z,33.60
2018-07-26T18:22:19.380Z,33.50
2018-07-26T18:24:47.315Z,33.43
2018-07-26T18:27:14.977Z,33.34
2018-07-26T18:29:43.242Z,33.26
2018-07-26T18:32:10.928Z,33.19
2018-07-26T18:34:38.618Z,33.13
2018-07-26T18:37:06.358Z,33.13
2018-07-26T18:39:35.710Z,33.07
2018-07-26T18:42:04.097Z,33.00
2018-07-26T18:44:32.188Z,32.93
2018-07-26T18:46:59.831Z,32.85
2018-07-26T18:49:28.068Z,32.79
2018-07-26T18:51:56.118Z,32.74
2018-07-26T18:54:23.752Z,32.62
2018-07-26T18:56:51.752Z,32.05
2018-07-26T18:59:19.858Z,32.46
2018-07-26T19:01:47.527Z,32.36
2018-07-26T19:04:15.692Z,32.28
2018-07-26T19:06:43.422Z,32.21
2018-07-26T19:09:12.191Z,32.14
2018-07-26T19:11:40.920Z,32.02
2018-07-26T19:14:08.588Z,31.95
2018-07-26T19:16:36.251Z,31.84
2018-07-26T19:19:04.055Z,31.76
2018-07-26T19:21:31.721Z,31.72
2018-07-26T19:23:59.377Z,31.70
2018-07-26T19:26:27.220Z,31.66
2018-07-26T19:28:54.912Z,31.57
2018-07-26T19:31:23.044Z,31.50
2018-07-26T19:33:52.324Z,31.46
2018-07-26T19:36:20.090Z,31.38
2018-07-26T19:38:47.671Z,31.32
2018-07-26T19:41:15.940Z,31.23
2018-07-26T19:43:43.949Z,31.17
2018-07-26T19:46:11.807Z,31.06
2018-07-26T19:48:39.507Z,31.02
2018-07-26T19:51:07.154Z,30.97
2018-07-26T19:53:34.811Z,30.95
2018-07-26T19:56:02.732Z,30.89
2018-07-26T19:58:30.869Z,30.86
2018-07-26T20:00:58.984Z,30.79
2018-07-26T20:03:26.805Z,30.74
2018-07-26T20:05:54.446Z,30.72
2018-07-26T20:08:22.087Z,30.63
2018-07-26T20:10:49.796Z,30.59
2018-07-26T20:13:17.954Z,30.59
2018-07-26T20:15:46.485Z,30.55
2018-07-26T20:18:14.874Z,30.54
2018-07-26T20:20:42.884Z,30.46
2018-07-26T20:23:10.554Z,30.44
2018-07-26T20:25:40.317Z,30.39
2018-07-26T20:28:08.644Z,30.32
2018-07-26T20:30:36.553Z,30.29
2018-07-26T20:33:04.294Z,30.29
2018-07-26T20:35:31.873Z,30.32
2018-07-26T20:37:59.571Z,30.32
2018-07-26T20:40:27.471Z,30.27
2018-07-26T20:42:55.321Z,30.27
2018-07-26T20:45:23.005Z,30.30
2018-07-26T20:47:50.676Z,30.30
2018-07-26T20:50:18.559Z,30.27
2018-07-26T20:52:46.287Z,30.23
2018-07-26T20:55:13.941Z,30.22
2018-07-26T20:57:41.605Z,30.15
2018-07-26T21:00:11.027Z,30.10
2018-07-26T21:02:38.708Z,30.07
2018-07-26T21:05:06.379Z,30.05
2018-07-26T21:07:34.657Z,30.03
2018-07-26T21:10:02.400Z,30.01
2018-07-26T21:12:30.689Z,29.99
2018-07-26T21:14:58.398Z,29.95
2018-07-26T21:17:26.060Z,29.95
2018-07-26T21:19:53.994Z,29.99
2018-07-26T21:22:21.602Z,29.98
2018-07-26T21:24:50.022Z,29.96
2018-07-26T21:27:17.990Z,29.94
2018-07-26T21:29:45.677Z,29.91
2018-07-26T21:32:13.350Z,29.92
2018-07-26T21:34:41.043Z,29.55
2018-07-26T21:37:08.716Z,29.87
2018-07-26T21:39:36.630Z,29.83
2018-07-26T21:42:04.709Z,29.84
2018-07-26T21:44:32.394Z,29.82
2018-07-26T21:47:00.052Z,29.80
2018-07-26T21:49:28.090Z,29.77
2018-07-26T21:51:55.955Z,29.61
2018-07-26T21:54:24.214Z,29.58
2018-07-26T21:56:52.162Z,29.54
2018-07-26T21:59:19.860Z,29.45
2018-07-26T22:01:47.592Z,29.38
2018-07-26T22:04:15.253Z,29.40
2018-07-26T22:06:43.736Z,29.41
2018-07-26T22:09:12.027Z,29.39
2018-07-26T22:11:40.287Z,29.35
2018-07-26T22:14:08.621Z,29.30
2018-07-26T22:16:36.621Z,29.25
2018-07-26T22:19:04.516Z,29.34
2018-07-26T22:21:32.262Z,29.26
2018-07-26T22:24:00.787Z,29.20
2018-07-26T22:26:28.434Z,29.15
2018-07-26T22:28:56.367Z,29.07
2018-07-26T22:31:24.350Z,29.06
2018-07-26T22:33:52.638Z,29.01
2018-07-26T22:36:20.308Z,28.96
2018-07-26T22:38:48.780Z,28.91
2018-07-26T22:41:16.382Z,28.88
2018-07-26T22:43:44.096Z,28.81
2018-07-26T22:46:12.035Z,28.79
2018-07-26T22:48:40.258Z,28.78
2018-07-26T22:51:07.970Z,28.75
2018-07-26T22:53:35.665Z,28.69
2018-07-26T22:56:03.311Z,28.59
2018-07-26T22:58:30.957Z,28.52
2018-07-26T23:00:58.653Z,28.51
2018-07-26T23:03:26.393Z,28.52
2018-07-26T23:05:54.232Z,28.50
2018-07-26T23:08:22.249Z,28.50
2018-07-26T23:10:49.899Z,28.42
2018-07-26T23:13:17.932Z,28.44
2018-07-26T23:15:45.617Z,28.51
2018-07-26T23:18:13.602Z,28.48
2018-07-26T23:20:41.381Z,28.42
2018-07-26T23:23:12.593Z,28.47
2018-07-26T23:25:42.514Z,28.42
2018-07-26T23:28:10.524Z,28.42
2018-07-26T23:30:38.168Z,28.35
2018-07-26T23:33:06.141Z,28.34
2018-07-26T23:35:34.117Z,28.28
2018-07-26T23:38:01.755Z,28.20
2018-07-26T23:40:29.428Z,28.16
2018-07-26T23:42:57.407Z,28.23
2018-07-26T23:45:25.413Z,28.32
2018-07-26T23:47:53.056Z,28.38
2018-07-26T23:50:20.796Z,28.36
2018-07-26T23:52:49.052Z,28.35
2018-07-26T23:55:16.910Z,28.29
2018-07-26T23:57:45.161Z,28.34
